createdAt,value
2017-12-08T00:00:08.308Z,54.3
2017-12-08T00:15:04.540Z,53.1
2017-12-08T00:30:05.005Z,53.4
2017-12-08T00:45:07.812Z,54.2
2017-12-08T01:00:06.081Z,54.8
2017-12-08T01:15:04.952Z,55.5
2017-12-08T01:30:04.735Z,56.5
2017-12-08T01:45:05.459Z,58.6
2017-12-08T02:00:04.317Z,62.6
2017-12-08T02:15:04.777Z,65.6
2017-12-08T02:30:04.495Z,67.1
2017-12-08T02:45:04.912Z,69.2
2017-12-08T03:00:04.675Z,68.8
2017-12-08T03:15:04.721Z,69.8
2017-12-08T03:30:04.902Z,71.1
2017-12-08T03:45:07.612Z,71.6
2017-12-08T04:00:05.687Z,71.8
2017-12-08T04:15:04.882Z,71.3
2017-12-08T04:30:04.637Z,71.9
2017-12-08T04:45:05.348Z,72.9
2017-12-08T05:00:08.224Z,73.1
2017-12-08T05:15:05.676Z,73
2017-12-08T05:30:05.654Z,72.9
2017-12-08T05:45:05.526Z,73.2
2017-12-08T06:00:04.433Z,73.7
2017-12-08T06:15:05.294Z,74.6
2017-12-08T06:30:04.992Z,75.2
2017-12-08T06:45:04.891Z,75.5
2017-12-08T07:00:04.354Z,75.7
2017-12-08T07:15:04.271Z,76.7
2017-12-08T07:30:04.392Z,76.3
2017-12-08T07:45:04.777Z,76.8
2017-12-08T08:00:05.201Z,76.1
2017-12-08T08:15:04.578Z,75.8
2017-12-08T08:30:04.677Z,75.2
2017-12-08T08:45:04.534Z,74.6
2017-12-08T09:00:04.429Z,75.2
2017-12-08T09:15:05.843Z,76.1
2017-12-08T09:30:05.942Z,73.7
2017-12-08T09:45:05.380Z,72.2
2017-12-08T10:00:05.412Z,73.8
2017-12-08T10:15:05.510Z,73.1
2017-12-08T10:30:04.654Z,72.1
2017-12-08T10:45:06.109Z,71.7
2017-12-08T11:00:04.510Z,71.3
2017-12-08T11:15:08.112Z,70.3
2017-12-08T11:30:04.779Z,70.6
2017-12-08T11:45:05.302Z,68.6
2017-12-08T12:00:05.171Z,69
2017-12-08T12:15:04.530Z,63.2
2017-12-08T12:30:04.345Z,64.1
2017-12-08T12:45:04.269Z,62.7
2017-12-08T13:00:04.758Z,63.8
2017-12-08T13:15:05.252Z,63.3
2017-12-08T13:30:04.498Z,62
2017-12-08T13:45:06.019Z,62.3
2017-12-08T14:00:04.400Z,62.3
2017-12-08T14:15:05.037Z,64.1
2017-12-08T14:30:04.745Z,68.3
2017-12-08T14:45:06.141Z,68.6
2017-12-08T15:00:04.990Z,68.7
2017-12-08T15:15:15.124Z,70.5
2017-12-08T15:30:05.885Z,69.4
2017-12-08T15:45:04.787Z,69
2017-12-08T16:00:04.739Z,66.3
2017-12-08T16:15:06.178Z,63.2
2017-12-08T16:30:07.794Z,65.7
2017-12-08T16:45:05.680Z,67.8
2017-12-08T17:00:05.615Z,68.7
2017-12-08T17:15:04.998Z,67
2017-12-08T17:30:05.176Z,68.2
2017-12-08T17:45:06.078Z,67.8
2017-12-08T18:00:04.571Z,67.8
2017-12-08T18:15:04.498Z,67.2
2017-12-08T18:30:05.217Z,67
2017-12-08T18:45:05.615Z,66.8
2017-12-08T19:00:05.074Z,68.1
2017-12-08T19:15:07.582Z,69.2
2017-12-08T19:30:05.668Z,67.2
2017-12-08T19:45:04.718Z,66.4
2017-12-08T20:00:04.621Z,69.9
2017-12-08T20:15:04.509Z,70.3
2017-12-08T20:30:04.672Z,69.2
2017-12-08T20:45:04.525Z,67
2017-12-08T21:00:04.429Z,72.2
2017-12-08T21:15:08.024Z,72.8
2017-12-08T21:30:04.632Z,71.8
2017-12-08T21:45:05.095Z,72
2017-12-08T22:00:05.005Z,72.8
2017-12-08T22:15:04.954Z,72.4
2017-12-08T22:30:04.559Z,71.6
2017-12-08T22:45:04.438Z,72.5
2017-12-08T23:00:04.938Z,72.2
2017-12-08T23:15:04.846Z,71.5
2017-12-08T23:30:04.937Z,70.5
2017-12-08T23:45:07.808Z,70.7
